Flight Track Log - Related Links

Times and Time Zones

All times are in EDT time to prevent confusion due to time zone crossing. See the AAY890 flight status page for this flight to view local times or setup timezone preferences in your user account.

Time Position Orientation Groundspeed Altitude Reporting Facility
EDT Latitude Longitude Course Direction KTS MPH feet Rate Location/Type
Mon 04:16:37 PM 27.9333 -82.7000 351° North 170 196 800  Level Tampa TRACON
Mon 04:17:19 PM 27.9667 -82.7000 360° North 181 208 2,000 1,833 Climbing Tampa TRACON
Mon 04:18:25 PM 28.0333 -82.7167 348° North 271 312 4,100 2,595 Climbing Tampa TRACON
Mon 04:20:24 PM 28.1856 -82.7467 350° North 292 336 10,000 2,586 Climbing Miami Center
Mon 04:21:26 PM 28.2678 -82.7492 358° North 291 335 11,900 1,220 Climbing Miami Center
Mon 04:22:00 PM 28.5727 -82.8272 351° North  Level FlightAware Approximate
Mon 04:22:27 PM 28.3556 -82.7572 355° North 312 359 12,500  Level Miami Center
Mon 04:23:29 PM 28.4572 -82.7803 349° North 367 422 14,300 1,935 Climbing Miami Center
Mon 04:24:31 PM 28.5664 -82.8056 349° North 392 451 16,500 2,081 Climbing Miami Center
Mon 04:25:33 PM 28.6828 -82.8322 349° North 406 467 18,600 1,902 Climbing Miami Center
Mon 04:26:34 PM 28.8000 -82.8586 349° North 423 487 20,400 1,805 Climbing Miami Center
Mon 04:27:46 PM 28.9514 -82.8972 347° North 430 495 22,600 1,636 Climbing Jacksonville Center
Mon 04:28:46 PM 29.0767 -82.9258 349° North 442 509 24,000 1,450 Climbing Jacksonville Center
Mon 04:29:46 PM 29.2039 -82.9567 348° North 453 521 25,500 1,350 Climbing Jacksonville Center
Mon 04:30:46 PM 29.3353 -82.9856 349° North 459 528 26,700 1,550 Climbing Jacksonville Center
Mon 04:31:46 PM 29.4544 -83.0333 341° North 465 535 28,600 1,650 Climbing Jacksonville Center
Mon 04:32:46 PM 29.5836 -83.0908 339° North 476 548 30,000 1,300 Climbing Jacksonville Center
Mon 04:33:46 PM 29.7067 -83.1414 340° North 476 548 31,200 1,150 Climbing Jacksonville Center
Mon 04:34:46 PM 29.8256 -83.1942 339° North 469 540 32,300 950 Climbing Jacksonville Center
Mon 04:35:46 PM 29.9508 -83.2522 338° Northwest 470 541 33,100 850 Climbing Jacksonville Center
Mon 04:36:46 PM 30.0739 -83.3031 340° North 475 547 34,000 450 Climbing Jacksonville Center
Mon 04:37:46 PM 30.1967 -83.3564 339° North 475 547 34,000 -50 Level Jacksonville Center
Mon 04:38:46 PM 30.3197 -83.4100 339° North 475 547 33,900 -50 Descending Jacksonville Center
Mon 04:39:46 PM 30.4531 -83.4708 339° North 475 547 33,900  Level Jacksonville Center
Mon 04:40:46 PM 30.5761 -83.5247 339° North 475 547 33,900 50 Level Jacksonville Center
Mon 04:41:46 PM 30.6947 -83.5786 339° North 469 540 34,000 50 Climbing Jacksonville Center
Mon 04:42:46 PM 30.8197 -83.6353 339° North 469 540 34,000  Level Jacksonville Center
Mon 04:43:46 PM 30.9406 -83.6919 338° Northwest 469 540 34,000  Level Jacksonville Center
Mon 04:44:46 PM 31.0675 -83.7464 340° North 474 545 34,000  Level Jacksonville Center
Mon 04:45:46 PM 31.1842 -83.8033 337° Northwest 469 540 34,000  Level Jacksonville Center
Mon 04:47:59 PM 31.4522 -83.9317 338° Northwest 471 542 34,000  Level Atlanta Center
Mon 04:48:59 PM 31.5756 -83.9781 342° North 466 536 34,000  Level Atlanta Center
Mon 04:49:59 PM 31.7050 -84.0022 351° North 466 536 34,000  Level Atlanta Center
Mon 04:50:59 PM 31.8342 -84.0292 350° North 466 536 34,000  Level Atlanta Center
Mon 04:51:59 PM 31.9636 -84.0558 350° North 466 536 34,000  Level Atlanta Center
Mon 04:52:59 PM 32.0911 -84.0856 349° North 466 536 34,000  Level Atlanta Center
Mon 04:53:59 PM 32.2203 -84.1150 349° North 466 536 34,000  Level Atlanta Center
Mon 04:54:59 PM 32.3497 -84.1422 350° North 466 536 34,000  Level Atlanta Center
Mon 04:55:59 PM 32.4769 -84.1719 349° North 466 536 34,000  Level Atlanta Center
Mon 04:56:59 PM 32.6044 -84.1992 350° North 466 536 34,000  Level Atlanta Center
Mon 04:57:59 PM 32.7169 -84.2264 348° North 466 536 34,000  Level Atlanta Center
Mon 04:58:59 PM 32.8444 -84.2564 349° North 466 536 34,000  Level Atlanta Center
Mon 04:59:59 PM 32.9717 -84.2864 349° North 466 536 34,000  Level Atlanta Center
Mon 05:00:59 PM 33.0989 -84.3067 352° North 466 536 34,000  Level Atlanta Center
Mon 05:01:59 PM 33.2283 -84.3069 360° North 466 536 34,000  Level Atlanta Center
Mon 05:02:59 PM 33.3556 -84.3050 North 459 528 34,000  Level Atlanta Center
Mon 05:03:59 PM 33.4850 -84.3053 360° North 459 528 34,000  Level Atlanta Center
Mon 05:04:59 PM 33.6250 -84.3058 360° North 446 513 34,000  Level Atlanta Center
Mon 05:05:59 PM 33.7500 -84.3061 360° North 446 513 34,000  Level Atlanta Center
Mon 05:06:59 PM 33.8794 -84.3067 360° North 446 513 34,000  Level Atlanta Center
Mon 05:07:59 PM 34.0006 -84.3069 360° North 448 516 34,000  Level Atlanta Center
Mon 05:08:59 PM 34.1364 -84.3022 North 455 524 34,000  Level Atlanta Center
Mon 05:09:59 PM 34.2636 -84.3053 359° North 462 532 34,000  Level Atlanta Center
Mon 05:10:59 PM 34.3889 -84.3056 360° North 457 526 34,000  Level Atlanta Center
Mon 05:11:59 PM 34.5161 -84.3061 360° North 457 526 34,000  Level Atlanta Center
Mon 05:12:59 PM 34.6433 -84.3089 359° North 457 526 34,000  Level Atlanta Center
Mon 05:13:59 PM 34.7667 -84.3042 North 452 520 34,000  Level Atlanta Center
Mon 05:14:59 PM 34.8981 -84.3072 359° North 452 520 34,000  Level Atlanta Center
Mon 05:15:59 PM 35.0064 -84.3075 360° North 446 513 34,000  Level Atlanta Center
Mon 05:16:59 PM 35.1297 -84.3081 360° North 441 507 34,000  Level Atlanta Center
Mon 05:17:59 PM 35.2569 -84.3083 360° North 441 507 34,000  Level Atlanta Center
Mon 05:18:59 PM 35.3822 -84.3061 North 441 507 34,000  Level Atlanta Center
Mon 05:19:59 PM 35.5094 -84.3067 360° North 441 507 34,000  Level Atlanta Center
Mon 05:20:59 PM 35.6367 -84.3069 360° North 446 513 34,000  Level Atlanta Center
Mon 05:21:59 PM 35.7639 -84.3050 North 446 513 34,000  Level Atlanta Center
Mon 05:22:59 PM 35.8911 -84.3078 359° North 451 519 34,000  Level Atlanta Center
Mon 05:23:59 PM 36.0183 -84.3058 North 451 519 34,000  Level Atlanta Center
Mon 05:24:59 PM 36.1456 -84.3061 360° North 451 519 34,000  Level Atlanta Center
Mon 05:25:51 PM 36.2703 -84.3078 359° North 457 526 34,000  Level Indianapolis Center
Mon 05:26:53 PM 36.3972 -84.3075 360° North 457 526 34,000  Level Indianapolis Center
Mon 05:27:55 PM 36.5239 -84.3081 360° North 457 526 34,000  Level Indianapolis Center
Mon 05:28:56 PM 36.6525 -84.3086 360° North 457 526 34,000  Level Indianapolis Center
Mon 05:29:58 PM 36.7814 -84.3103 359° North 457 526 34,000  Level Indianapolis Center
Mon 05:31:00 PM 36.9106 -84.3108 360° North 458 527 34,000  Level Indianapolis Center
Mon 05:32:01 PM 37.0383 -84.3100 360° North 458 527 34,000  Level Indianapolis Center
Mon 05:33:03 PM 37.1889 -84.3106 360° North 458 527 34,000  Level Indianapolis Center
Mon 05:34:05 PM 37.3169 -84.3122 359° North 458 527 34,000  Level Indianapolis Center
Mon 05:35:06 PM 37.4419 -84.3331 352° North 455 524 34,000  Level Indianapolis Center
Mon 05:36:08 PM 37.5625 -84.3644 348° North 446 513 34,000  Level Indianapolis Center
Mon 05:37:10 PM 37.6842 -84.3933 349° North 444 511 34,000  Level Indianapolis Center
Mon 05:38:11 PM 37.8053 -84.4233 349° North 444 511 34,000  Level Indianapolis Center
Mon 05:39:13 PM 37.9267 -84.4514 350° North 444 511 34,000  Level Indianapolis Center
Mon 05:40:15 PM 38.0700 -84.4853 349° North 444 511 34,000  Level Indianapolis Center
Mon 05:41:17 PM 38.1942 -84.5092 351° North 448 516 34,000  Level Indianapolis Center
Mon 05:42:18 PM 38.3158 -84.5383 349° North 448 516 34,000  Level Indianapolis Center
Mon 05:43:20 PM 38.4383 -84.5661 350° North 447 514 34,000  Level Indianapolis Center
Mon 05:44:23 PM 38.5603 -84.5947 350° North 447 514 34,000  Level Indianapolis Center
Mon 05:45:23 PM 38.6739 -84.6222 349° North 447 514 34,000  Level Indianapolis Center
Mon 05:46:25 PM 38.8239 -84.6569 350° North 451 519 34,000  Level Indianapolis Center
Mon 05:47:27 PM 38.9522 -84.6892 349° North 451 519 34,000 -484 Level Indianapolis Center
Mon 05:48:29 PM 39.0739 -84.7186 349° North 449 517 33,000 -488 Descending Indianapolis Center
Mon 05:49:30 PM 39.1967 -84.7472 350° North 446 513 33,000 -683 Level Indianapolis Center
Mon 05:50:32 PM 39.3175 -84.7772 349° North 446 513 31,600 -1,935 Descending Indianapolis Center
Mon 05:51:34 PM 39.4339 -84.8058 349° North 433 498 29,000 -2,976 Descending Indianapolis Center
Mon 05:52:35 PM 39.5531 -84.8350 349° North 430 495 25,500 -2,439 Descending Indianapolis Center
Mon 05:53:37 PM 39.6750 -84.8653 349° North 437 503 24,000 -726 Descending Indianapolis Center
Mon 05:54:39 PM 39.8067 -84.8972 349° North 437 503 24,000  Level Indianapolis Center
Mon 05:55:41 PM 39.9250 -84.9275 349° North 437 503 24,000 -878 Level Indianapolis Center
Mon 05:56:42 PM 40.0425 -84.9564 349° North 437 503 22,200 -2,537 Descending Indianapolis Center
Mon 05:57:44 PM 40.1575 -84.9847 349° North 429 494 18,800 -3,194 Descending Indianapolis Center
Mon 05:58:46 PM 40.2844 -85.0167 349° North 397 457 15,600 -3,097 Descending Indianapolis Center
Mon 05:59:48 PM 40.3853 -85.0419 349° North 375 432 12,400 -2,244 Descending Indianapolis Center
Mon 06:00:49 PM 40.4764 -85.0656 349° North 350 403 11,000 -1,366 Descending Indianapolis Center
Mon 06:01:51 PM 40.5567 -85.0853 349° North 311 358 9,600 -1,355 Descending Indianapolis Center
Mon 06:02:53 PM 40.6364 -85.1061 349° North 297 342 8,200 -1,500 Descending Indianapolis Center
Mon 06:03:55 PM 40.7122 -85.1264 349° North 284 327 6,500 -1,610 Descending Indianapolis Center
Mon 06:04:56 PM 40.7761 -85.1800 328° Northwest 288 331 4,900 -987 Descending Indianapolis Center
Mon 06:06:27 PM 40.8756 -85.2703 326° Northwest 265 305 4,000 -353 Descending Chicago Center
Mon 06:07:29 PM 40.9192 -85.3247 317° Northwest 234 269 4,000 -242 Level Chicago Center
Mon 06:08:31 PM 40.9728 -85.3467 343° North 214 246 3,500 -581 Descending Chicago Center
Mon 06:09:33 PM 41.0194 -85.3092 31° Northeast 203 234 2,800 -774 Descending Chicago Center
Mon 06:10:35 PM 41.0300 -85.2567 75° East 180 207 1,900 -619 Descending Chicago Center
Mon 06:11:39 PM 40.9975 -85.2131 135° Southeast 164 189 1,500 -375 Descending Chicago Center

Login

Don't have an account? Register now (free) for customized features, flight alerts, and more!